sensor_id;sensor_type;location;lat;lon;timestamp;pressure;altitude;pressure_sealevel;temperature;humidity
10176;BME280;18221;38.704;0.152;2023-03-01T00:02:53;98969.34;;;13.31;34.47
10176;BME280;18221;38.704;0.152;2023-03-01T00:05:22;98977.03;;;13.34;34.33
10176;BME280;18221;38.704;0.152;2023-03-01T00:07:53;98976.66;;;13.29;34.78
10176;BME280;18221;38.704;0.152;2023-03-01T00:10:21;98965.28;;;13.27;34.68
10176;BME280;18221;38.704;0.152;2023-03-01T00:12:50;98969.81;;;13.27;35.06
10176;BME280;18221;38.704;0.152;2023-03-01T00:15:18;98975.59;;;13.22;35.21
10176;BME280;18221;38.704;0.152;2023-03-01T00:17:46;98980.78;;;13.24;35.21
10176;BME280;18221;38.704;0.152;2023-03-01T00:20:16;98990.38;;;13.17;35.21
10176;BME280;18221;38.704;0.152;2023-03-01T00:22:45;98981.03;;;13.13;35.47
10176;BME280;18221;38.704;0.152;2023-03-01T00:25:13;98983.53;;;13.14;35.46
10176;BME280;18221;38.704;0.152;2023-03-01T00:27:41;98981.56;;;13.16;35.50
10176;BME280;18221;38.704;0.152;2023-03-01T00:30:11;98971.06;;;13.15;35.80
10176;BME280;18221;38.704;0.152;2023-03-01T00:32:39;98974.38;;;13.17;35.71
10176;BME280;18221;38.704;0.152;2023-03-01T00:35:08;98978.53;;;13.11;35.65
10176;BME280;18221;38.704;0.152;2023-03-01T00:37:38;98982.50;;;13.07;36.14
10176;BME280;18221;38.704;0.152;2023-03-01T00:40:11;98979.00;;;13.07;36.17
10176;BME280;18221;38.704;0.152;2023-03-01T00:42:42;98977.69;;;13.11;36.06
10176;BME280;18221;38.704;0.152;2023-03-01T00:45:11;98976.00;;;13.10;36.08
10176;BME280;18221;38.704;0.152;2023-03-01T00:47:39;98974.50;;;13.07;36.01
10176;BME280;18221;38.704;0.152;2023-03-01T00:50:10;98970.84;;;13.08;36.08
10176;BME280;18221;38.704;0.152;2023-03-01T00:52:40;98972.41;;;13.01;36.53
10176;BME280;18221;38.704;0.152;2023-03-01T00:55:09;98968.94;;;13.00;36.36
10176;BME280;18221;38.704;0.152;2023-03-01T00:57:37;98971.75;;;12.99;36.64
10176;BME280;18221;38.704;0.152;2023-03-01T01:00:07;98968.09;;;13.00;36.58
10176;BME280;18221;38.704;0.152;2023-03-01T01:02:36;98964.06;;;12.96;36.51
10176;BME280;18221;38.704;0.152;2023-03-01T01:05:06;98961.25;;;12.97;36.69
10176;BME280;18221;38.704;0.152;2023-03-01T01:07:35;98960.41;;;12.97;36.84
10176;BME280;18221;38.704;0.152;2023-03-01T01:10:06;98961.72;;;12.93;36.85
10176;BME280;18221;38.704;0.152;2023-03-01T01:12:34;98961.88;;;12.91;37.12
10176;BME280;18221;38.704;0.152;2023-03-01T01:15:02;98962.03;;;12.90;37.16
10176;BME280;18221;38.704;0.152;2023-03-01T01:17:31;98963.19;;;12.87;37.45
10176;BME280;18221;38.704;0.152;2023-03-01T01:19:59;98961.03;;;12.91;37.04
10176;BME280;18221;38.704;0.152;2023-03-01T01:22:27;98959.66;;;12.87;37.10
10176;BME280;18221;38.704;0.152;2023-03-01T01:24:56;98962.47;;;12.85;37.30
10176;BME280;18221;38.704;0.152;2023-03-01T01:27:25;98958.34;;;12.91;36.93
10176;BME280;18221;38.704;0.152;2023-03-01T01:29:54;98956.53;;;12.91;37.39
10176;BME280;18221;38.704;0.152;2023-03-01T01:32:23;98958.53;;;12.89;37.11
10176;BME280;18221;38.704;0.152;2023-03-01T01:34:51;98952.66;;;12.86;37.37
10176;BME280;18221;38.704;0.152;2023-03-01T01:37:20;98951.97;;;12.84;37.46
10176;BME280;18221;38.704;0.152;2023-03-01T01:39:48;98946.97;;;12.81;37.38
10176;BME280;18221;38.704;0.152;2023-03-01T01:42:18;98949.41;;;12.74;37.60
10176;BME280;18221;38.704;0.152;2023-03-01T01:44:48;98943.25;;;12.74;37.64
10176;BME280;18221;38.704;0.152;2023-03-01T01:47:20;98949.25;;;12.76;37.51
10176;BME280;18221;38.704;0.152;2023-03-01T01:49:54;98944.50;;;12.62;37.49
10176;BME280;18221;38.704;0.152;2023-03-01T01:52:29;98944.88;;;12.67;37.73
10176;BME280;18221;38.704;0.152;2023-03-01T01:55:05;98943.47;;;12.63;37.93
10176;BME280;18221;38.704;0.152;2023-03-01T01:57:40;98941.97;;;12.60;37.94
10176;BME280;18221;38.704;0.152;2023-03-01T02:00:15;98939.16;;;12.62;38.02
10176;BME280;18221;38.704;0.152;2023-03-01T02:02:45;98940.22;;;12.69;37.94
10176;BME280;18221;38.704;0.152;2023-03-01T02:05:24;98936.22;;;12.73;38.18
10176;BME280;18221;38.704;0.152;2023-03-01T02:07:54;98934.41;;;12.73;38.59
10176;BME280;18221;38.704;0.152;2023-03-01T02:10:23;98927.25;;;12.74;38.09
10176;BME280;18221;38.704;0.152;2023-03-01T02:12:53;98931.53;;;12.67;38.32
10176;BME280;18221;38.704;0.152;2023-03-01T02:15:24;98918.22;;;12.67;38.46
10176;BME280;18221;38.704;0.152;2023-03-01T02:17:54;98925.13;;;12.60;38.70
10176;BME280;18221;38.704;0.152;2023-03-01T02:20:28;98910.59;;;12.54;39.03
10176;BME280;18221;38.704;0.152;2023-03-01T02:23:01;98912.75;;;12.51;38.97
10176;BME280;18221;38.704;0.152;2023-03-01T02:25:39;98911.91;;;12.50;38.08
10176;BME280;18221;38.704;0.152;2023-03-01T02:28:30;98910.84;;;12.61;37.41
10176;BME280;18221;38.704;0.152;2023-03-01T02:30:58;98905.50;;;12.61;36.28
10176;BME280;18221;38.704;0.152;2023-03-01T02:33:44;98900.03;;;12.62;34.59
10176;BME280;18221;38.704;0.152;2023-03-01T02:36:18;98906.59;;;12.50;33.37
10176;BME280;18221;38.704;0.152;2023-03-01T02:38:48;98904.09;;;12.49;33.49
10176;BME280;18221;38.704;0.152;2023-03-01T02:41:20;98902.72;;;12.45;33.33
10176;BME280;18221;38.704;0.152;2023-03-01T02:43:51;98902.34;;;12.39;33.24
10176;BME280;18221;38.704;0.152;2023-03-01T02:46:22;98906.75;;;12.49;32.67
10176;BME280;18221;38.704;0.152;2023-03-01T02:48:54;98896.09;;;12.49;32.53
10176;BME280;18221;38.704;0.152;2023-03-01T02:51:45;98896.97;;;12.57;32.02
10176;BME280;18221;38.704;0.152;2023-03-01T02:54:24;98896.66;;;12.34;31.87
10176;BME280;18221;38.704;0.152;2023-03-01T02:56:55;98879.63;;;12.27;31.86
10176;BME280;18221;38.704;0.152;2023-03-01T02:59:31;98883.53;;;12.41;31.53
10176;BME280;18221;38.704;0.152;2023-03-01T03:02:01;98878.28;;;12.49;31.81
10176;BME280;18221;38.704;0.152;2023-03-01T03:04:30;98877.78;;;12.46;32.04
10176;BME280;18221;38.704;0.152;2023-03-01T03:06:58;98870.44;;;12.48;32.55
10176;BME280;18221;38.704;0.152;2023-03-01T03:09:26;98871.50;;;12.55;32.24
10176;BME280;18221;38.704;0.152;2023-03-01T03:11:54;98875.72;;;12.39;32.77
10176;BME280;18221;38.704;0.152;2023-03-01T03:14:24;98872.22;;;12.21;31.60
10176;BME280;18221;38.704;0.152;2023-03-01T03:16:52;98869.50;;;12.13;31.83
10176;BME280;18221;38.704;0.152;2023-03-01T03:19:20;98874.81;;;11.96;31.54
10176;BME280;18221;38.704;0.152;2023-03-01T03:21:48;98864.66;;;11.91;31.78
10176;BME280;18221;38.704;0.152;2023-03-01T03:24:17;98872.31;;;11.94;32.44
10176;BME280;18221;38.704;0.152;2023-03-01T03:26:45;98871.03;;;11.81;33.19
10176;BME280;18221;38.704;0.152;2023-03-01T03:29:13;98865.78;;;11.89;34.06
10176;BME280;18221;38.704;0.152;2023-03-01T03:31:43;98867.44;;;11.90;35.34
10176;BME280;18221;38.704;0.152;2023-03-01T03:34:11;98867.22;;;11.83;36.05
10176;BME280;18221;38.704;0.152;2023-03-01T03:36:44;98875.88;;;11.85;36.37
10176;BME280;18221;38.704;0.152;2023-03-01T03:39:12;98872.47;;;11.75;36.60
10176;BME280;18221;38.704;0.152;2023-03-01T03:41:40;98878.84;;;11.82;37.31
10176;BME280;18221;38.704;0.152;2023-03-01T03:44:08;98879.75;;;11.63;38.00
10176;BME280;18221;38.704;0.152;2023-03-01T03:46:36;98873.53;;;11.82;36.72
10176;BME280;18221;38.704;0.152;2023-03-01T03:49:06;98873.34;;;11.84;36.94
10176;BME280;18221;38.704;0.152;2023-03-01T03:51:35;98874.91;;;11.86;37.59
10176;BME280;18221;38.704;0.152;2023-03-01T03:54:03;98878.09;;;11.90;37.17
10176;BME280;18221;38.704;0.152;2023-03-01T03:56:31;98874.66;;;11.97;37.90
10176;BME280;18221;38.704;0.152;2023-03-01T03:58:59;98873.78;;;12.06;37.27
10176;BME280;18221;38.704;0.152;2023-03-01T04:01:28;98865.09;;;12.04;37.07
10176;BME280;18221;38.704;0.152;2023-03-01T04:03:56;98867.13;;;11.75;38.37
10176;BME280;18221;38.704;0.152;2023-03-01T04:06:32;98862.66;;;11.75;38.34
10176;BME280;18221;38.704;0.152;2023-03-01T04:09:00;98864.47;;;11.75;38.71
10176;BME280;18221;38.704;0.152;2023-03-01T04:11:30;98872.53;;;11.83;38.33
10176;BME280;18221;38.704;0.152;2023-03-01T04:13:59;98869.44;;;11.88;38.37
10176;BME280;18221;38.704;0.152;2023-03-01T04:16:27;98875.88;;;11.58;39.66
10176;BME280;18221;38.704;0.152;2023-03-01T04:18:56;98879.06;;;11.71;38.89
10176;BME280;18221;38.704;0.152;2023-03-01T04:21:26;98880.22;;;11.86;38.49
10176;BME280;18221;38.704;0.152;2023-03-01T04:23:56;98890.69;;;11.70;38.80
10176;BME280;18221;38.704;0.152;2023-03-01T04:26:24;98886.91;;;11.63;39.24
10176;BME280;18221;38.704;0.152;2023-03-01T04:28:53;98885.34;;;11.43;39.17
10176;BME280;18221;38.704;0.152;2023-03-01T04:31:21;98891.56;;;11.34;40.42
10176;BME280;18221;38.704;0.152;2023-03-01T04:33:52;98896.16;;;11.68;40.21
10176;BME280;18221;38.704;0.152;2023-03-01T04:36:24;98894.50;;;11.58;40.71
10176;BME280;18221;38.704;0.152;2023-03-01T04:38:55;98895.69;;;11.46;40.31
10176;BME280;18221;38.704;0.152;2023-03-01T04:41:25;98905.47;;;11.45;39.71
10176;BME280;18221;38.704;0.152;2023-03-01T04:43:53;98898.56;;;11.62;39.41
10176;BME280;18221;38.704;0.152;2023-03-01T04:46:22;98892.09;;;11.64;39.32
10176;BME280;18221;38.704;0.152;2023-03-01T04:48:50;98906.66;;;11.70;39.10
10176;BME280;18221;38.704;0.152;2023-03-01T04:51:18;98908.34;;;11.61;39.48
10176;BME280;18221;38.704;0.152;2023-03-01T04:53:46;98909.56;;;11.67;39.91
10176;BME280;18221;38.704;0.152;2023-03-01T04:56:17;98914.13;;;11.57;39.80
10176;BME280;18221;38.704;0.152;2023-03-01T04:58:46;98911.34;;;11.49;39.76
10176;BME280;18221;38.704;0.152;2023-03-01T05:01:17;98915.38;;;11.53;39.65
10176;BME280;18221;38.704;0.152;2023-03-01T05:03:49;98921.69;;;11.52;40.30
10176;BME280;18221;38.704;0.152;2023-03-01T05:06:19;98919.72;;;11.54;40.23
10176;BME280;18221;38.704;0.152;2023-03-01T05:08:48;98916.63;;;11.58;39.24
10176;BME280;18221;38.704;0.152;2023-03-01T05:11:18;98920.00;;;11.51;40.09
10176;BME280;18221;38.704;0.152;2023-03-01T05:13:47;98917.75;;;11.56;39.69
10176;BME280;18221;38.704;0.152;2023-03-01T05:16:19;98911.94;;;11.43;39.53
10176;BME280;18221;38.704;0.152;2023-03-01T05:18:47;98912.84;;;11.24;39.75
10176;BME280;18221;38.704;0.152;2023-03-01T05:21:17;98917.03;;;11.27;39.90
10176;BME280;18221;38.704;0.152;2023-03-01T05:23:45;98910.06;;;11.26;39.63
10176;BME280;18221;38.704;0.152;2023-03-01T05:26:17;98919.50;;;11.10;40.05
10176;BME280;18221;38.704;0.152;2023-03-01T05:28:45;98921.44;;;11.08;39.40
10176;BME280;18221;38.704;0.152;2023-03-01T05:31:13;98930.13;;;11.01;39.48
10176;BME280;18221;38.704;0.152;2023-03-01T05:33:42;98925.56;;;10.93;39.54
10176;BME280;18221;38.704;0.152;2023-03-01T05:36:11;98922.22;;;10.91;39.54
10176;BME280;18221;38.704;0.152;2023-03-01T05:38:39;98925.72;;;10.82;39.91
10176;BME280;18221;38.704;0.152;2023-03-01T05:41:14;98928.78;;;10.87;39.71
10176;BME280;18221;38.704;0.152;2023-03-01T05:43:44;98924.19;;;10.89;39.22
10176;BME280;18221;38.704;0.152;2023-03-01T05:46:13;98929.91;;;10.94;39.01
10176;BME280;18221;38.704;0.152;2023-03-01T05:48:41;98934.69;;;10.81;39.41
10176;BME280;18221;38.704;0.152;2023-03-01T05:51:10;98943.38;;;10.74;39.49
10176;BME280;18221;38.704;0.152;2023-03-01T05:53:38;98947.69;;;10.84;38.93
10176;BME280;18221;38.704;0.152;2023-03-01T05:56:07;98941.66;;;10.82;38.81
10176;BME280;18221;38.704;0.152;2023-03-01T05:58:35;98942.47;;;10.92;39.27
10176;BME280;18221;38.704;0.152;2023-03-01T06:01:11;98948.63;;;10.93;38.63
10176;BME280;18221;38.704;0.152;2023-03-01T06:03:39;98938.97;;;11.01;38.68
10176;BME280;18221;38.704;0.152;2023-03-01T06:06:08;98942.19;;;10.95;38.06
10176;BME280;18221;38.704;0.152;2023-03-01T06:08:36;98935.91;;;10.96;38.36
10176;BME280;18221;38.704;0.152;2023-03-01T06:11:04;98943.31;;;10.93;38.06
10176;BME280;18221;38.704;0.152;2023-03-01T06:13:33;98940.38;;;10.96;37.96
10176;BME280;18221;38.704;0.152;2023-03-01T06:16:06;98943.75;;;10.88;38.37
10176;BME280;18221;38.704;0.152;2023-03-01T06:18:35;98934.22;;;11.05;38.51
10176;BME280;18221;38.704;0.152;2023-03-01T06:21:04;98943.19;;;10.85;38.17
10176;BME280;18221;38.704;0.152;2023-03-01T06:23:33;98943.59;;;10.90;38.05
10176;BME280;18221;38.704;0.152;2023-03-01T06:26:06;98938.38;;;11.07;37.90
10176;BME280;18221;38.704;0.152;2023-03-01T06:28:35;98932.81;;;11.01;38.02
10176;BME280;18221;38.704;0.152;2023-03-01T06:31:05;98929.19;;;11.02;37.87
10176;BME280;18221;38.704;0.152;2023-03-01T06:33:35;98920.66;;;10.98;38.24
10176;BME280;18221;38.704;0.152;2023-03-01T06:36:04;98924.88;;;10.91;38.46
10176;BME280;18221;38.704;0.152;2023-03-01T06:38:33;98923.66;;;10.76;38.37
10176;BME280;18221;38.704;0.152;2023-03-01T06:41:01;98928.41;;;10.53;38.93
10176;BME280;18221;38.704;0.152;2023-03-01T06:43:30;98923.94;;;10.54;39.42
10176;BME280;18221;38.704;0.152;2023-03-01T06:45:58;98928.44;;;10.44;39.14
10176;BME280;18221;38.704;0.152;2023-03-01T06:48:28;98929.69;;;10.30;39.81
10176;BME280;18221;38.704;0.152;2023-03-01T06:50:59;98931.38;;;10.22;39.96
10176;BME280;18221;38.704;0.152;2023-03-01T06:53:28;98933.16;;;10.40;39.90
10176;BME280;18221;38.704;0.152;2023-03-01T06:55:57;98928.44;;;10.25;39.94
10176;BME280;18221;38.704;0.152;2023-03-01T06:58:26;98922.28;;;10.34;38.83
10176;BME280;18221;38.704;0.152;2023-03-01T07:00:55;98921.31;;;10.35;39.72
10176;BME280;18221;38.704;0.152;2023-03-01T07:03:23;98917.56;;;10.37;39.62
10176;BME280;18221;38.704;0.152;2023-03-01T07:05:53;98922.72;;;10.39;39.87
10176;BME280;18221;38.704;0.152;2023-03-01T07:08:21;98920.88;;;10.30;39.27
10176;BME280;18221;38.704;0.152;2023-03-01T07:10:55;98925.22;;;10.21;39.82
10176;BME280;18221;38.704;0.152;2023-03-01T07:13:23;98929.13;;;10.36;39.40
10176;BME280;18221;38.704;0.152;2023-03-01T07:15:51;98931.63;;;10.67;38.96
10176;BME280;18221;38.704;0.152;2023-03-01T07:18:20;98929.25;;;10.73;38.45
10176;BME280;18221;38.704;0.152;2023-03-01T07:20:48;98934.41;;;10.65;38.72
10176;BME280;18221;38.704;0.152;2023-03-01T07:23:17;98940.16;;;10.70;38.11
10176;BME280;18221;38.704;0.152;2023-03-01T07:25:52;98937.78;;;10.38;38.42
10176;BME280;18221;38.704;0.152;2023-03-01T07:28:22;98946.31;;;10.42;38.68
10176;BME280;18221;38.704;0.152;2023-03-01T07:30:50;98940.16;;;10.51;38.30
10176;BME280;18221;38.704;0.152;2023-03-01T07:33:19;98944.09;;;10.47;38.04
10176;BME280;18221;38.704;0.152;2023-03-01T07:35:47;98937.38;;;10.43;38.49
10176;BME280;18221;38.704;0.152;2023-03-01T07:38:17;98930.13;;;10.45;37.91
10176;BME280;18221;38.704;0.152;2023-03-01T07:40:45;98938.50;;;10.50;37.96
10176;BME280;18221;38.704;0.152;2023-03-01T07:43:13;98941.13;;;10.60;37.60
10176;BME280;18221;38.704;0.152;2023-03-01T07:45:42;98943.69;;;10.32;38.14
10176;BME280;18221;38.704;0.152;2023-03-01T07:48:10;98932.34;;;10.21;38.53
10176;BME280;18221;38.704;0.152;2023-03-01T07:50:38;98938.22;;;10.24;39.07
10176;BME280;18221;38.704;0.152;2023-03-01T07:53:06;98949.41;;;10.37;38.74
10176;BME280;18221;38.704;0.152;2023-03-01T07:55:37;98941.16;;;10.31;38.19
10176;BME280;18221;38.704;0.152;2023-03-01T07:58:05;98943.81;;;10.50;38.24
10176;BME280;18221;38.704;0.152;2023-03-01T08:00:36;98940.47;;;10.48;38.40
10176;BME280;18221;38.704;0.152;2023-03-01T08:03:05;98934.56;;;10.54;38.01
10176;BME280;18221;38.704;0.152;2023-03-01T08:05:33;98943.22;;;10.56;38.03
10176;BME280;18221;38.704;0.152;2023-03-01T08:08:01;98941.69;;;10.63;37.98
10176;BME280;18221;38.704;0.152;2023-03-01T08:10:30;98947.97;;;10.72;38.17
10176;BME280;18221;38.704;0.152;2023-03-01T08:12:59;98951.28;;;10.93;38.18
10176;BME280;18221;38.704;0.152;2023-03-01T08:15:27;98945.22;;;11.10;37.64
10176;BME280;18221;38.704;0.152;2023-03-01T08:17:56;98945.22;;;11.10;38.06
10176;BME280;18221;38.704;0.152;2023-03-01T08:20:24;98953.56;;;11.25;37.97
10176;BME280;18221;38.704;0.152;2023-03-01T08:22:52;98946.00;;;11.30;37.14
10176;BME280;18221;38.704;0.152;2023-03-01T08:25:21;98940.56;;;11.31;38.36
10176;BME280;18221;38.704;0.152;2023-03-01T08:27:49;98938.53;;;11.43;37.49
10176;BME280;18221;38.704;0.152;2023-03-01T08:30:19;98940.00;;;11.28;37.56
10176;BME280;18221;38.704;0.152;2023-03-01T08:32:50;98936.03;;;11.41;37.78
10176;BME280;18221;38.704;0.152;2023-03-01T08:35:20;98942.09;;;11.24;37.76
10176;BME280;18221;38.704;0.152;2023-03-01T08:37:49;98931.44;;;11.34;37.35
10176;BME280;18221;38.704;0.152;2023-03-01T08:40:17;98939.16;;;11.27;37.50
10176;BME280;18221;38.704;0.152;2023-03-01T08:42:46;98935.75;;;11.35;37.97
10176;BME280;18221;38.704;0.152;2023-03-01T08:45:14;98938.13;;;11.38;37.87
10176;BME280;18221;38.704;0.152;2023-03-01T08:47:46;98936.53;;;11.45;38.12
10176;BME280;18221;38.704;0.152;2023-03-01T08:50:15;98933.72;;;11.56;37.76
10176;BME280;18221;38.704;0.152;2023-03-01T08:52:43;98928.09;;;11.59;37.24
10176;BME280;18221;38.704;0.152;2023-03-01T08:55:12;98933.13;;;11.62;37.02
10176;BME280;18221;38.704;0.152;2023-03-01T08:57:41;98940.22;;;11.71;36.92
10176;BME280;18221;38.704;0.152;2023-03-01T09:00:11;98931.44;;;11.70;37.00
10176;BME280;18221;38.704;0.152;2023-03-01T09:02:41;98942.63;;;11.64;37.26
10176;BME280;18221;38.704;0.152;2023-03-01T09:05:11;98944.16;;;11.67;37.08
10176;BME280;18221;38.704;0.152;2023-03-01T09:07:39;98945.00;;;11.67;37.71
10176;BME280;18221;38.704;0.152;2023-03-01T09:10:09;98948.19;;;11.44;37.87
10176;BME280;18221;38.704;0.152;2023-03-01T09:12:38;98937.75;;;11.60;37.68
10176;BME280;18221;38.704;0.152;2023-03-01T09:15:08;98933.81;;;11.64;36.88
10176;BME280;18221;38.704;0.152;2023-03-01T09:17:36;98942.63;;;11.64;37.33
10176;BME280;18221;38.704;0.152;2023-03-01T09:20:06;98940.50;;;11.77;37.14
10176;BME280;18221;38.704;0.152;2023-03-01T09:22:36;98946.31;;;11.81;36.91
10176;BME280;18221;38.704;0.152;2023-03-01T09:25:06;98943.47;;;11.92;36.64
10176;BME280;18221;38.704;0.152;2023-03-01T09:27:36;98937.56;;;11.98;37.12
10176;BME280;18221;38.704;0.152;2023-03-01T09:30:06;98936.34;;;11.93;37.24
10176;BME280;18221;38.704;0.152;2023-03-01T09:32:34;98932.38;;;11.97;37.60
10176;BME280;18221;38.704;0.152;2023-03-01T09:35:05;98930.56;;;11.97;38.07
10176;BME280;18221;38.704;0.152;2023-03-01T09:37:35;98918.94;;;11.98;37.91
10176;BME280;18221;38.704;0.152;2023-03-01T09:40:08;98925.31;;;12.05;37.89
10176;BME280;18221;38.704;0.152;2023-03-01T09:42:56;98929.38;;;11.82;38.32
10176;BME280;18221;38.704;0.152;2023-03-01T09:45:34;98917.25;;;11.97;38.51
10176;BME280;18221;38.704;0.152;2023-03-01T09:48:09;98923.66;;;12.04;37.50
10176;BME280;18221;38.704;0.152;2023-03-01T09:50:43;98917.13;;;12.16;37.42
10176;BME280;18221;38.704;0.152;2023-03-01T09:53:17;98911.16;;;12.05;37.44
10176;BME280;18221;38.704;0.152;2023-03-01T09:55:54;98913.31;;;12.01;37.22
10176;BME280;18221;38.704;0.152;2023-03-01T09:58:44;98903.72;;;12.08;36.93
10176;BME280;18221;38.704;0.152;2023-03-01T10:01:29;98911.88;;;12.07;37.37
10176;BME280;18221;38.704;0.152;2023-03-01T10:04:28;98919.19;;;12.22;37.31
10176;BME280;18221;38.704;0.152;2023-03-01T10:07:17;98925.94;;;12.17;36.92
10176;BME280;18221;38.704;0.152;2023-03-01T10:09:51;98928.13;;;12.39;36.55
10176;BME280;18221;38.704;0.152;2023-03-01T10:12:24;98923.56;;;12.31;37.06
10176;BME280;18221;38.704;0.152;2023-03-01T10:15:01;98927.81;;;12.42;36.46
10176;BME280;18221;38.704;0.152;2023-03-01T10:17:42;98924.94;;;12.53;36.29
10176;BME280;18221;38.704;0.152;2023-03-01T10:20:21;98933.84;;;12.26;36.85
10176;BME280;18221;38.704;0.152;2023-03-01T10:22:51;98936.28;;;12.37;36.43
10176;BME280;18221;38.704;0.152;2023-03-01T10:25:45;98925.06;;;12.69;36.49
10176;BME280;18221;38.704;0.152;2023-03-01T10:28:23;98929.25;;;12.72;35.96
10176;BME280;18221;38.704;0.152;2023-03-01T10:30:53;98928.59;;;12.78;35.96
10176;BME280;18221;38.704;0.152;2023-03-01T10:33:26;98924.19;;;12.86;35.86
10176;BME280;18221;38.704;0.152;2023-03-01T10:35:55;98919.75;;;12.69;35.88
10176;BME280;18221;38.704;0.152;2023-03-01T10:38:24;98920.66;;;12.60;36.11
10176;BME280;18221;38.704;0.152;2023-03-01T10:40:57;98921.50;;;12.61;36.28
10176;BME280;18221;38.704;0.152;2023-03-01T10:43:44;98927.72;;;12.52;36.75
10176;BME280;18221;38.704;0.152;2023-03-01T10:46:25;98924.00;;;12.62;36.67
10176;BME280;18221;38.704;0.152;2023-03-01T10:49:16;98918.22;;;12.67;36.09
10176;BME280;18221;38.704;0.152;2023-03-01T10:51:48;98916.91;;;12.71;36.18
10176;BME280;18221;38.704;0.152;2023-03-01T10:54:20;98916.19;;;12.86;35.87
10176;BME280;18221;38.704;0.152;2023-03-01T10:56:53;98917.28;;;12.76;35.97
10176;BME280;18221;38.704;0.152;2023-03-01T10:59:30;98912.72;;;12.68;36.46
10176;BME280;18221;38.704;0.152;2023-03-01T11:02:18;98910.75;;;12.96;36.09
10176;BME280;18221;38.704;0.152;2023-03-01T11:04:59;98909.75;;;12.97;35.54
10176;BME280;18221;38.704;0.152;2023-03-01T11:07:28;98915.16;;;13.05;35.46
10176;BME280;18221;38.704;0.152;2023-03-01T11:09:57;98897.06;;;13.17;35.27
10176;BME280;18221;38.704;0.152;2023-03-01T11:12:27;98904.22;;;13.08;35.67
10176;BME280;18221;38.704;0.152;2023-03-01T11:14:57;98901.25;;;13.19;35.15
10176;BME280;18221;38.704;0.152;2023-03-01T11:17:29;98901.63;;;13.32;35.03
10176;BME280;18221;38.704;0.152;2023-03-01T11:20:13;98899.44;;;13.61;34.88
10176;BME280;18221;38.704;0.152;2023-03-01T11:22:49;98892.41;;;14.02;34.02
10176;BME280;18221;38.704;0.152;2023-03-01T11:25:24;98885.56;;;14.00;33.64
10176;BME280;18221;38.704;0.152;2023-03-01T11:27:55;98898.41;;;14.12;33.68
10176;BME280;18221;38.704;0.152;2023-03-01T11:30:29;98897.94;;;14.25;34.09
10176;BME280;18221;38.704;0.152;2023-03-01T11:33:13;98891.56;;;14.10;33.50
10176;BME280;18221;38.704;0.152;2023-03-01T11:35:55;98892.75;;;14.15;32.81
10176;BME280;18221;38.704;0.152;2023-03-01T11:38:28;98892.16;;;13.80;32.81
10176;BME280;18221;38.704;0.152;2023-03-01T11:41:05;98894.47;;;13.75;33.17
10176;BME280;18221;38.704;0.152;2023-03-01T11:43:47;98893.47;;;13.68;33.58
10176;BME280;18221;38.704;0.152;2023-03-01T11:46:55;98887.84;;;13.95;33.42
10176;BME280;18221;38.704;0.152;2023-03-01T11:50:10;98897.59;;;14.28;33.39
10176;BME280;18221;38.704;0.152;2023-03-01T11:52:54;98900.91;;;14.22;32.60
10176;BME280;18221;38.704;0.152;2023-03-01T11:55:48;98881.88;;;14.09;32.66
10176;BME280;18221;38.704;0.152;2023-03-01T11:58:56;98881.06;;;14.16;33.14
10176;BME280;18221;38.704;0.152;2023-03-01T12:01:53;98877.03;;;14.04;32.77
10176;BME280;18221;38.704;0.152;2023-03-01T12:05:34;98878.56;;;14.15;32.67
10176;BME280;18221;38.704;0.152;2023-03-01T12:08:16;98873.34;;;14.05;32.26
10176;BME280;18221;38.704;0.152;2023-03-01T12:10:58;98874.22;;;14.30;32.16
10176;BME280;18221;38.704;0.152;2023-03-01T12:14:08;98873.59;;;14.36;32.68
10176;BME280;18221;38.704;0.152;2023-03-01T12:17:25;98880.59;;;14.69;31.80
10176;BME280;18221;38.704;0.152;2023-03-01T12:20:20;98855.09;;;15.14;32.23
10176;BME280;18221;38.704;0.152;2023-03-01T12:23:23;98860.28;;;15.07;30.91
10176;BME280;18221;38.704;0.152;2023-03-01T12:26:05;98847.59;;;15.09;31.14
10176;BME280;18221;38.704;0.152;2023-03-01T12:29:11;98848.88;;;15.21;31.12
10176;BME280;18221;38.704;0.152;2023-03-01T12:32:22;98846.53;;;15.18;30.82
10176;BME280;18221;38.704;0.152;2023-03-01T12:35:35;98840.69;;;15.15;30.58
10176;BME280;18221;38.704;0.152;2023-03-01T12:38:24;98839.94;;;14.98;31.02
10176;BME280;18221;38.704;0.152;2023-03-01T12:41:41;98830.59;;;14.86;31.34
10176;BME280;18221;38.704;0.152;2023-03-01T12:44:28;98828.75;;;14.78;31.09
10176;BME280;18221;38.704;0.152;2023-03-01T12:47:15;98818.28;;;14.53;31.72
10176;BME280;18221;38.704;0.152;2023-03-01T12:49:54;98815.78;;;14.67;31.74
10176;BME280;18221;38.704;0.152;2023-03-01T12:52:35;98807.81;;;14.43;31.91
10176;BME280;18221;38.704;0.152;2023-03-01T12:55:22;98806.44;;;14.47;32.13
10176;BME280;18221;38.704;0.152;2023-03-01T12:58:05;98802.59;;;14.58;31.78
10176;BME280;18221;38.704;0.152;2023-03-01T13:00:48;98796.25;;;14.51;32.71
10176;BME280;18221;38.704;0.152;2023-03-01T13:03:33;98788.31;;;14.90;33.50
10176;BME280;18221;38.704;0.152;2023-03-01T13:06:15;98786.22;;;15.16;32.70
10176;BME280;18221;38.704;0.152;2023-03-01T13:08:53;98788.47;;;15.35;32.67
10176;BME280;18221;38.704;0.152;2023-03-01T13:11:23;98790.75;;;15.46;32.86
10176;BME280;18221;38.704;0.152;2023-03-01T13:13:52;98782.38;;;15.41;31.44
10176;BME280;18221;38.704;0.152;2023-03-01T13:16:44;98782.38;;;15.49;31.31
10176;BME280;18221;38.704;0.152;2023-03-01T13:19:17;98784.84;;;15.59;31.09
10176;BME280;18221;38.704;0.152;2023-03-01T13:21:49;98779.69;;;15.49;30.78
10176;BME280;18221;38.704;0.152;2023-03-01T13:24:28;98759.22;;;15.25;30.75
10176;BME280;18221;38.704;0.152;2023-03-01T13:27:23;98763.34;;;15.36;31.47
10176;BME280;18221;38.704;0.152;2023-03-01T13:29:58;98756.78;;;15.16;31.35
10176;BME280;18221;38.704;0.152;2023-03-01T13:32:34;98748.09;;;15.14;31.95
10176;BME280;18221;38.704;0.152;2023-03-01T13:35:44;98757.31;;;15.42;32.37